createdAt,value
2019-01-11T00:00:17.068Z,9.88
2019-01-11T00:02:48.875Z,9.88
2019-01-11T00:05:20.382Z,10.80
2019-01-11T00:07:52.192Z,13.78
2019-01-11T00:10:23.748Z,10.13
2019-01-11T00:12:55.460Z,7.90
2019-01-11T00:15:26.995Z,11.57
2019-01-11T00:17:58.920Z,11.10
2019-01-11T00:20:31.007Z,11.68
2019-01-11T00:23:02.552Z,10.45
2019-01-11T00:25:34.452Z,8.53
2019-01-11T00:28:06.101Z,13.55
2019-01-11T00:30:37.847Z,12.98
2019-01-11T00:33:09.454Z,10.08
2019-01-11T00:35:41.138Z,10.58
2019-01-11T00:38:12.880Z,10.23
2019-01-11T00:40:44.704Z,7.97
2019-01-11T00:43:16.541Z,8.75
2019-01-11T00:45:48.120Z,15.53
2019-01-11T00:48:20.103Z,15.63
2019-01-11T00:50:51.968Z,12.37
2019-01-11T00:53:24.260Z,12.23
2019-01-11T00:55:56.159Z,15.65
2019-01-11T00:58:28.896Z,14.00
2019-01-11T01:01:01.019Z,14.00
2019-01-11T01:03:33.102Z,13.45
2019-01-11T01:06:05.489Z,16.62
2019-01-11T01:08:37.554Z,23.57
2019-01-11T01:11:09.441Z,19.12
2019-01-11T01:13:44.580Z,23.02
2019-01-11T01:16:17.054Z,11.95
2019-01-11T01:18:48.760Z,17.73
2019-01-11T01:21:20.389Z,27.85
2019-01-11T01:23:52.129Z,38.42
2019-01-11T01:26:24.071Z,35.17
2019-01-11T01:28:55.917Z,24.55
2019-01-11T01:31:27.742Z,22.95
2019-01-11T01:33:59.494Z,22.95
2019-01-11T01:36:31.197Z,26.00
2019-01-11T01:39:03.215Z,24.12
2019-01-11T01:41:34.783Z,18.15
2019-01-11T01:44:06.833Z,11.05
2019-01-11T01:46:38.909Z,9.20
2019-01-11T01:49:10.342Z,10.40
2019-01-11T01:51:44.067Z,11.70
2019-01-11T01:54:15.774Z,25.27
2019-01-11T01:56:47.436Z,21.12
2019-01-11T01:59:19.018Z,19.73
2019-01-11T02:01:50.529Z,16.67
2019-01-11T02:04:22.016Z,8.68
2019-01-11T02:06:53.561Z,11.88
2019-01-11T02:09:26.224Z,9.58
2019-01-11T02:11:57.889Z,8.85
2019-01-11T02:14:29.693Z,10.60
2019-01-11T02:17:01.550Z,11.35
2019-01-11T02:19:33.373Z,10.85
2019-01-11T02:22:05.004Z,14.80
2019-01-11T02:24:36.505Z,16.93
2019-01-11T02:27:08.174Z,16.67
2019-01-11T02:29:39.707Z,12.78
2019-01-11T02:32:11.291Z,16.30
2019-01-11T02:34:42.938Z,12.85
2019-01-11T02:37:14.695Z,11.43
2019-01-11T02:39:46.414Z,11.73
2019-01-11T02:42:18.075Z,11.35
2019-01-11T02:44:49.715Z,10.35
2019-01-11T02:47:21.335Z,10.80
2019-01-11T02:49:52.780Z,11.68
2019-01-11T02:52:24.585Z,12.45
2019-01-11T02:54:56.046Z,9.83
2019-01-11T02:57:27.703Z,11.68
2019-01-11T02:59:59.387Z,9.50
2019-01-11T03:02:31.378Z,15.75
2019-01-11T03:05:02.960Z,14.60
2019-01-11T03:07:34.648Z,14.03
2019-01-11T03:10:07.681Z,13.78
2019-01-11T03:12:39.087Z,12.07
2019-01-11T03:15:10.981Z,11.20
2019-01-11T03:17:42.725Z,13.38
2019-01-11T03:20:16.117Z,15.88
2019-01-11T03:22:47.832Z,14.20
2019-01-11T03:25:19.426Z,13.28
2019-01-11T03:27:51.101Z,12.43
2019-01-11T03:30:23.608Z,15.85
2019-01-11T03:32:56.014Z,16.85
2019-01-11T03:35:27.945Z,21.27
2019-01-11T03:37:59.613Z,16.90
2019-01-11T03:40:32.328Z,18.25
2019-01-11T03:43:04.118Z,13.32
2019-01-11T03:45:36.166Z,14.28
2019-01-11T03:48:08.043Z,14.00
2019-01-11T03:50:39.639Z,12.58
2019-01-11T03:53:11.480Z,14.47
2019-01-11T03:55:43.161Z,13.72
2019-01-11T03:58:14.724Z,14.03
2019-01-11T04:00:47.368Z,12.90
2019-01-11T04:03:19.203Z,13.25
2019-01-11T04:05:51.009Z,12.85
2019-01-11T04:08:22.693Z,13.88
2019-01-11T04:10:54.425Z,13.78
2019-01-11T04:13:30.498Z,14.38
2019-01-11T04:15:59.793Z,16.35
2019-01-11T04:18:36.024Z,14.40
2019-01-11T04:21:07.999Z,15.53
2019-01-11T04:23:39.697Z,14.93
2019-01-11T04:26:11.449Z,24.77
2019-01-11T04:28:43.129Z,23.30
2019-01-11T04:31:14.757Z,23.42
2019-01-11T04:33:46.447Z,19.70
2019-01-11T04:36:18.469Z,15.60
2019-01-11T04:38:50.015Z,14.45
2019-01-11T04:41:21.636Z,16.55
2019-01-11T04:43:53.354Z,15.25
2019-01-11T04:46:25.021Z,12.05
2019-01-11T04:48:56.761Z,10.40
2019-01-11T04:51:28.633Z,10.85
2019-01-11T04:54:00.316Z,11.97
2019-01-11T04:56:32.210Z,10.10
2019-01-11T04:59:04.101Z,12.55
2019-01-11T05:01:35.840Z,12.30
2019-01-11T05:04:07.929Z,15.70
2019-01-11T05:06:39.758Z,12.15
2019-01-11T05:09:11.363Z,14.13
2019-01-11T05:11:43.175Z,17.55
2019-01-11T05:14:14.932Z,45.38
2019-01-11T05:16:46.482Z,15.03
2019-01-11T05:19:18.223Z,13.95
2019-01-11T05:21:50.084Z,11.97
2019-01-11T05:24:21.715Z,16.85
2019-01-11T05:26:53.824Z,11.88
2019-01-11T05:29:25.268Z,15.35
2019-01-11T05:31:56.821Z,12.68
2019-01-11T05:34:28.549Z,14.87
2019-01-11T05:37:00.740Z,12.78
2019-01-11T05:39:32.512Z,13.28
2019-01-11T05:42:04.616Z,13.05
2019-01-11T05:44:36.469Z,12.03
2019-01-11T05:47:08.479Z,14.35
2019-01-11T05:49:40.759Z,20.37
2019-01-11T05:52:12.800Z,15.32
2019-01-11T05:54:45.037Z,14.33
2019-01-11T05:57:16.871Z,17.42
2019-01-11T05:59:48.703Z,13.72
2019-01-11T06:02:20.255Z,14.23
2019-01-11T06:04:59.903Z,16.77
2019-01-11T06:07:42.728Z,18.82
2019-01-11T06:10:16.850Z,32.90
2019-01-11T06:12:48.655Z,22.00
2019-01-11T06:15:20.395Z,20.23
2019-01-11T06:17:52.054Z,18.82
2019-01-11T06:20:30.051Z,16.23
2019-01-11T06:22:57.334Z,18.37
2019-01-11T06:25:34.626Z,18.77
2019-01-11T06:28:18.531Z,16.02
2019-01-11T06:30:50.221Z,14.90
2019-01-11T06:33:22.071Z,15.18
2019-01-11T06:35:54.136Z,13.72
2019-01-11T06:38:25.769Z,18.35
2019-01-11T06:40:57.493Z,13.75
2019-01-11T06:43:29.473Z,14.68
2019-01-11T06:46:01.233Z,14.18
2019-01-11T06:48:42.325Z,17.67
2019-01-11T06:51:14.293Z,17.07
2019-01-11T06:53:46.358Z,20.57
2019-01-11T06:56:18.049Z,17.62
2019-01-11T06:58:50.029Z,16.50
2019-01-11T07:01:22.133Z,22.32
2019-01-11T07:03:54.331Z,30.75
2019-01-11T07:06:26.074Z,14.30
2019-01-11T07:08:57.814Z,14.38
2019-01-11T07:11:29.433Z,34.65
2019-01-11T07:14:01.080Z,20.72
2019-01-11T07:16:33.925Z,19.05
2019-01-11T07:19:06.147Z,13.30
2019-01-11T07:21:38.075Z,14.55
2019-01-11T07:24:09.723Z,15.38
2019-01-11T07:26:41.296Z,15.50
2019-01-11T07:29:13.065Z,12.05
2019-01-11T07:31:47.716Z,15.15
2019-01-11T07:34:19.792Z,25.20
2019-01-11T07:36:54.632Z,22.50
2019-01-11T07:39:30.647Z,15.55
2019-01-11T07:42:02.730Z,9.93
2019-01-11T07:44:34.405Z,8.13
2019-01-11T07:47:07.683Z,10.40
2019-01-11T07:49:39.459Z,9.40
2019-01-11T07:52:11.936Z,11.87
2019-01-11T07:54:43.784Z,10.33
2019-01-11T07:57:16.285Z,16.67
2019-01-11T07:59:48.098Z,15.70
2019-01-11T08:02:19.857Z,15.37
2019-01-11T08:04:51.975Z,13.63
2019-01-11T08:07:23.661Z,17.60
2019-01-11T08:09:55.851Z,17.23
2019-01-11T08:12:27.632Z,14.20
2019-01-11T08:15:00.837Z,10.23
2019-01-11T08:17:34.221Z,8.60
2019-01-11T08:20:06.296Z,13.67
2019-01-11T08:22:42.464Z,15.13
2019-01-11T08:25:14.909Z,13.30
2019-01-11T08:27:46.893Z,12.93
2019-01-11T08:30:18.958Z,11.60
2019-01-11T08:32:51.324Z,11.17
2019-01-11T08:35:23.157Z,9.63
2019-01-11T08:37:54.995Z,8.87
2019-01-11T08:40:27.460Z,6.57
2019-01-11T08:42:59.363Z,7.40
2019-01-11T08:45:31.092Z,5.43
2019-01-11T08:48:02.994Z,5.30
2019-01-11T08:50:34.816Z,5.03
2019-01-11T08:53:06.743Z,6.20
2019-01-11T08:55:39.219Z,4.70
2019-01-11T08:58:11.137Z,6.40
2019-01-11T09:00:42.957Z,5.20
2019-01-11T09:03:14.797Z,5.33
2019-01-11T09:05:46.609Z,7.27
2019-01-11T09:08:18.872Z,5.07
2019-01-11T09:10:51.200Z,6.57
2019-01-11T09:13:23.990Z,6.83
2019-01-11T09:15:55.910Z,6.90
2019-01-11T09:18:38.210Z,5.23
2019-01-11T09:21:11.447Z,4.63
2019-01-11T09:23:43.300Z,5.13
2019-01-11T09:26:15.556Z,5.60
2019-01-11T09:28:47.469Z,7.40
2019-01-11T09:31:20.344Z,4.93
2019-01-11T09:33:52.946Z,6.97
2019-01-11T09:36:25.240Z,4.93
2019-01-11T09:38:58.179Z,9.10
2019-01-11T09:41:30.260Z,5.30
2019-01-11T09:44:02.055Z,6.13
2019-01-11T09:46:34.089Z,5.53
2019-01-11T09:49:06.006Z,5.57
2019-01-11T09:51:38.075Z,6.77
2019-01-11T09:54:10.209Z,7.63
2019-01-11T09:56:42.486Z,7.33
2019-01-11T09:59:14.490Z,8.03
2019-01-11T10:01:47.931Z,7.70
2019-01-11T10:04:24.912Z,4.83
2019-01-11T10:07:08.133Z,4.83
2019-01-11T10:09:40.273Z,5.57
2019-01-11T10:12:12.875Z,5.03
2019-01-11T10:14:44.969Z,4.80
2019-01-11T10:17:16.851Z,8.93
2019-01-11T10:19:49.148Z,4.57
2019-01-11T10:22:21.251Z,4.53
2019-01-11T10:24:54.149Z,5.73
2019-01-11T10:27:27.029Z,6.20
2019-01-11T10:29:58.638Z,8.37
2019-01-11T10:32:30.507Z,3.87
2019-01-11T10:35:04.514Z,5.67
2019-01-11T10:37:36.476Z,4.83
2019-01-11T10:40:10.359Z,3.70
2019-01-11T10:42:42.715Z,5.83
2019-01-11T10:45:24.971Z,4.43
2019-01-11T10:47:59.528Z,4.00
2019-01-11T10:50:31.418Z,7.13
2019-01-11T10:53:03.375Z,6.83
2019-01-11T10:55:35.001Z,5.40
2019-01-11T10:58:07.550Z,4.47
2019-01-11T11:00:41.219Z,5.57
2019-01-11T11:03:13.902Z,4.43
2019-01-11T11:05:45.724Z,5.03
2019-01-11T11:08:17.730Z,2.50
2019-01-11T11:10:50.793Z,3.67
2019-01-11T11:13:22.360Z,5.70
2019-01-11T11:15:57.012Z,3.80
2019-01-11T11:18:28.870Z,19.43
2019-01-11T11:21:00.570Z,6.60
2019-01-11T11:23:32.302Z,5.17
2019-01-11T11:26:04.993Z,6.60
2019-01-11T11:28:36.650Z,4.77
2019-01-11T11:31:09.433Z,3.67
2019-01-11T11:33:41.179Z,2.73
2019-01-11T11:36:13.511Z,4.53
2019-01-11T11:38:45.428Z,3.00
2019-01-11T11:41:18.565Z,4.17
2019-01-11T11:43:50.746Z,4.43
2019-01-11T11:46:23.308Z,8.33
2019-01-11T11:48:56.286Z,6.07
2019-01-11T11:51:28.645Z,8.70
2019-01-11T11:54:00.613Z,10.03
2019-01-11T11:56:33.772Z,6.03
2019-01-11T11:59:06.134Z,3.90
2019-01-11T12:01:38.492Z,4.03
2019-01-11T12:04:10.114Z,3.20
2019-01-11T12:06:42.006Z,5.30
2019-01-11T12:09:13.826Z,6.27
2019-01-11T12:11:45.409Z,3.60
2019-01-11T12:14:17.275Z,9.07
2019-01-11T12:16:48.944Z,6.40
2019-01-11T12:19:20.557Z,6.50
2019-01-11T12:21:52.393Z,4.77
2019-01-11T12:24:23.998Z,9.00
2019-01-11T12:26:55.730Z,10.00
2019-01-11T12:29:27.432Z,4.83
2019-01-11T12:31:59.107Z,7.10
2019-01-11T12:34:31.208Z,7.37
2019-01-11T12:37:03.054Z,5.97
2019-01-11T12:39:34.713Z,5.80
2019-01-11T12:42:07.261Z,5.73
2019-01-11T12:44:39.021Z,5.43
2019-01-11T12:47:11.335Z,7.80
2019-01-11T12:49:48.473Z,7.03
2019-01-11T12:52:20.836Z,3.70
2019-01-11T12:54:53.087Z,16.13
2019-01-11T12:57:25.408Z,4.27
2019-01-11T12:59:58.334Z,8.57
2019-01-11T13:02:31.418Z,11.03
2019-01-11T13:05:04.496Z,20.70
2019-01-11T13:07:40.133Z,5.47
2019-01-11T13:10:15.657Z,8.63
2019-01-11T13:12:47.507Z,2.70
2019-01-11T13:15:25.189Z,6.30
2019-01-11T13:17:59.148Z,5.37
2019-01-11T13:20:30.906Z,3.57
2019-01-11T13:23:03.615Z,2.90
2019-01-11T13:25:35.403Z,4.03
2019-01-11T13:28:07.493Z,3.30
2019-01-11T13:30:39.052Z,8.80
2019-01-11T13:33:11.025Z,9.70
2019-01-11T13:35:43.482Z,7.70
2019-01-11T13:38:15.169Z,5.37
2019-01-11T13:40:47.025Z,2.97
2019-01-11T13:43:19.185Z,3.20
2019-01-11T13:45:51.189Z,2.53
2019-01-11T13:48:23.087Z,8.67
2019-01-11T13:50:56.312Z,4.07
2019-01-11T13:53:29.912Z,4.23
2019-01-11T13:56:03.432Z,4.00
2019-01-11T13:58:35.300Z,5.17
2019-01-11T14:01:08.747Z,7.63
2019-01-11T14:03:40.511Z,6.90
2019-01-11T14:06:12.691Z,7.90
2019-01-11T14:08:44.630Z,6.13
2019-01-11T14:11:17.518Z,5.33
2019-01-11T14:13:49.948Z,6.50
2019-01-11T14:16:22.670Z,7.60
2019-01-11T14:18:54.571Z,7.53
2019-01-11T14:21:27.016Z,3.90
2019-01-11T14:23:59.427Z,6.40
2019-01-11T14:26:31.284Z,6.03
2019-01-11T14:29:03.075Z,5.93
2019-01-11T14:31:37.293Z,4.37
2019-01-11T14:34:09.456Z,6.70
2019-01-11T14:36:42.795Z,6.33
2019-01-11T14:39:14.777Z,4.53
2019-01-11T14:41:47.707Z,4.90
2019-01-11T14:44:19.686Z,8.00
2019-01-11T14:46:51.955Z,6.47
2019-01-11T14:49:25.201Z,4.97
2019-01-11T14:51:56.893Z,5.83
2019-01-11T14:54:28.708Z,4.73
2019-01-11T14:57:02.863Z,5.57
2019-01-11T14:59:35.038Z,3.77
2019-01-11T15:02:07.140Z,8.10
2019-01-11T15:04:39.842Z,6.17
2019-01-11T15:07:11.760Z,6.67
2019-01-11T15:09:44.445Z,7.37
2019-01-11T15:12:16.473Z,7.40
2019-01-11T15:14:51.737Z,9.00
2019-01-11T15:17:23.358Z,11.93
2019-01-11T15:19:55.567Z,5.50
2019-01-11T15:22:27.478Z,4.30
2019-01-11T15:24:59.260Z,7.20
2019-01-11T15:27:32.403Z,5.90
2019-01-11T15:30:05.640Z,6.73
2019-01-11T15:32:38.819Z,6.93
2019-01-11T15:35:10.764Z,5.40
2019-01-11T15:37:44.199Z,6.47
2019-01-11T15:40:26.528Z,4.67
2019-01-11T15:42:58.794Z,15.37
2019-01-11T15:45:31.108Z,5.43
2019-01-11T15:48:03.542Z,7.37
2019-01-11T15:50:55.792Z,8.10
2019-01-11T15:53:34.583Z,7.97
2019-01-11T15:56:12.382Z,11.40
2019-01-11T15:58:46.902Z,9.93
2019-01-11T16:01:19.000Z,11.70
2019-01-11T16:03:51.717Z,18.37
2019-01-11T16:06:38.482Z,27.70
2019-01-11T16:10:06.058Z,10.37
2019-01-11T16:12:51.255Z,12.83
2019-01-11T16:15:59.343Z,10.25
2019-01-11T16:18:35.965Z,11.63
2019-01-11T16:21:08.924Z,11.47
2019-01-11T16:23:41.537Z,14.75
2019-01-11T16:26:15.352Z,13.48
2019-01-11T16:28:47.509Z,7.35
2019-01-11T16:31:21.858Z,9.05
2019-01-11T16:33:53.932Z,10.93
2019-01-11T16:36:27.415Z,7.85
2019-01-11T16:38:59.319Z,27.62
2019-01-11T16:41:33.657Z,20.25
2019-01-11T16:44:06.325Z,35.75
2019-01-11T16:46:39.505Z,18.17
2019-01-11T16:49:12.278Z,16.42
2019-01-11T16:51:45.425Z,19.98
2019-01-11T16:54:18.065Z,28.00
2019-01-11T16:56:51.279Z,46.73
2019-01-11T16:59:24.124Z,48.13
2019-01-11T17:01:57.120Z,24.40
2019-01-11T17:04:30.119Z,26.27
2019-01-11T17:07:04.905Z,6.85
2019-01-11T17:09:38.099Z,8.28
2019-01-11T17:12:11.456Z,10.03
2019-01-11T17:14:45.554Z,11.18
2019-01-11T17:17:17.476Z,10.80
2019-01-11T17:19:49.716Z,11.28
2019-01-11T17:22:25.000Z,11.33
2019-01-11T17:24:57.125Z,12.47
2019-01-11T17:27:29.229Z,18.87
2019-01-11T17:30:01.042Z,20.48
2019-01-11T17:32:32.952Z,19.12
2019-01-11T17:35:05.237Z,14.73
2019-01-11T17:37:38.855Z,20.62
2019-01-11T17:40:12.615Z,28.75
2019-01-11T17:42:44.586Z,15.58
2019-01-11T17:45:17.861Z,11.08
2019-01-11T17:47:50.034Z,8.33
2019-01-11T17:50:22.147Z,8.40
2019-01-11T17:52:59.823Z,11.30
2019-01-11T17:55:28.639Z,14.30
2019-01-11T17:58:00.636Z,15.43
2019-01-11T18:00:33.955Z,12.78
2019-01-11T18:03:07.478Z,23.22
2019-01-11T18:05:39.589Z,22.75
2019-01-11T18:08:11.778Z,18.40
2019-01-11T18:10:47.007Z,19.17
2019-01-11T18:13:19.221Z,13.75
2019-01-11T18:15:51.510Z,13.18
2019-01-11T18:18:24.047Z,9.55
2019-01-11T18:20:56.503Z,12.53
2019-01-11T18:23:28.967Z,15.80
2019-01-11T18:26:02.836Z,17.25
2019-01-11T18:28:37.944Z,18.50
2019-01-11T18:31:10.281Z,26.25
2019-01-11T18:33:45.582Z,26.30
2019-01-11T18:36:18.384Z,24.25
2019-01-11T18:38:52.909Z,21.23
2019-01-11T18:41:27.011Z,21.52
2019-01-11T18:43:59.351Z,10.05
2019-01-11T18:46:31.680Z,19.80
2019-01-11T18:49:04.377Z,12.00
2019-01-11T18:51:37.048Z,11.28
2019-01-11T18:54:11.967Z,12.80
2019-01-11T18:56:46.181Z,24.40
2019-01-11T18:59:18.519Z,15.23
2019-01-11T19:01:50.744Z,22.73
2019-01-11T19:04:22.727Z,12.25
2019-01-11T19:06:55.917Z,11.33
2019-01-11T19:09:28.236Z,11.93
2019-01-11T19:12:00.728Z,12.10
2019-01-11T19:14:33.920Z,14.20
2019-01-11T19:17:06.093Z,14.83
2019-01-11T19:19:38.368Z,15.25
2019-01-11T19:22:10.591Z,19.65
2019-01-11T19:24:45.068Z,33.18
2019-01-11T19:27:19.434Z,35.58
2019-01-11T19:29:51.949Z,33.30
2019-01-11T19:32:24.126Z,19.87
2019-01-11T19:34:56.983Z,13.95
2019-01-11T19:37:29.364Z,9.60
2019-01-11T19:40:02.246Z,14.28
2019-01-11T19:42:34.870Z,19.75
2019-01-11T19:45:09.845Z,22.55
2019-01-11T19:47:42.029Z,27.32
2019-01-11T19:50:17.219Z,31.07
2019-01-11T19:52:50.276Z,33.53
2019-01-11T19:55:23.103Z,31.05
2019-01-11T19:57:56.516Z,23.87
2019-01-11T20:00:31.189Z,27.42
2019-01-11T20:03:03.532Z,30.17
2019-01-11T20:05:36.328Z,30.17
2019-01-11T20:08:09.612Z,46.73
2019-01-11T20:10:41.536Z,31.70
2019-01-11T20:13:13.881Z,34.33
2019-01-11T20:15:46.585Z,27.58
2019-01-11T20:18:18.783Z,25.50
2019-01-11T20:20:51.464Z,32.70
2019-01-11T20:23:24.253Z,29.48
2019-01-11T20:25:56.778Z,29.63
2019-01-11T20:28:30.804Z,21.37
2019-01-11T20:31:03.168Z,17.17
2019-01-11T20:33:35.229Z,18.82
2019-01-11T20:36:07.432Z,20.82
2019-01-11T20:38:39.595Z,27.50
2019-01-11T20:41:11.839Z,28.98
2019-01-11T20:43:44.030Z,18.62
2019-01-11T20:46:16.100Z,15.32
2019-01-11T20:48:48.127Z,18.40
2019-01-11T20:51:21.734Z,17.77
2019-01-11T20:53:54.149Z,19.12
2019-01-11T20:56:26.431Z,24.60
2019-01-11T20:58:59.575Z,41.90
2019-01-11T21:01:31.825Z,37.30
2019-01-11T21:04:03.927Z,71.20
2019-01-11T21:06:36.144Z,51.33
2019-01-11T21:09:11.043Z,35.92
2019-01-11T21:11:47.217Z,33.90
2019-01-11T21:14:20.441Z,35.80
2019-01-11T21:16:53.014Z,31.05
2019-01-11T21:19:26.280Z,28.05
2019-01-11T21:21:59.494Z,40.60
2019-01-11T21:24:31.634Z,36.08
2019-01-11T21:27:04.643Z,44.08
2019-01-11T21:29:37.058Z,39.90
2019-01-11T21:32:09.367Z,41.53
2019-01-11T21:34:41.746Z,37.35
2019-01-11T21:37:13.682Z,27.55
2019-01-11T21:39:46.150Z,23.83
2019-01-11T21:42:19.136Z,12.70
2019-01-11T21:44:51.933Z,13.62
2019-01-11T21:47:24.046Z,18.27
2019-01-11T21:49:56.513Z,56.95
2019-01-11T21:52:28.308Z,24.77
2019-01-11T21:55:01.389Z,92.25
2019-01-11T21:57:33.598Z,101.07
2019-01-11T22:00:07.150Z,167.37
2019-01-11T22:02:39.131Z,150.50
2019-01-11T22:05:11.170Z,163.72
2019-01-11T22:07:45.420Z,79.15
2019-01-11T22:10:17.530Z,18.42
2019-01-11T22:12:49.854Z,13.80
2019-01-11T22:15:22.503Z,14.18
2019-01-11T22:17:55.470Z,10.82
2019-01-11T22:20:27.710Z,10.45
2019-01-11T22:22:59.721Z,14.80
2019-01-11T22:25:31.423Z,14.38
2019-01-11T22:28:03.198Z,12.25
2019-01-11T22:30:35.387Z,10.50
2019-01-11T22:33:07.161Z,11.43
2019-01-11T22:35:38.965Z,12.63
2019-01-11T22:38:10.595Z,15.25
2019-01-11T22:40:42.118Z,12.82
2019-01-11T22:43:14.169Z,12.15
2019-01-11T22:45:46.105Z,12.33
2019-01-11T22:48:18.383Z,9.58
2019-01-11T22:50:50.499Z,12.20
2019-01-11T22:53:22.260Z,11.35
2019-01-11T22:55:54.160Z,12.68
2019-01-11T22:58:26.104Z,12.53
2019-01-11T23:01:49.598Z,16.77
2019-01-11T23:04:21.516Z,13.85
2019-01-11T23:07:38.056Z,13.40
2019-01-11T23:10:53.308Z,13.93
2019-01-11T23:13:25.343Z,20.68
2019-01-11T23:16:25.692Z,22.80
2019-01-11T23:18:59.515Z,15.60
2019-01-11T23:21:31.207Z,16.02
2019-01-11T23:24:03.156Z,14.87
2019-01-11T23:26:43.647Z,15.72
2019-01-11T23:29:15.706Z,14.10
2019-01-11T23:31:48.102Z,12.00
2019-01-11T23:34:19.908Z,13.88
2019-01-11T23:36:52.111Z,14.63
2019-01-11T23:39:23.842Z,14.60
2019-01-11T23:41:56.235Z,14.13
2019-01-11T23:44:27.974Z,13.75
2019-01-11T23:47:00.504Z,12.15
2019-01-11T23:49:32.223Z,11.18
2019-01-11T23:52:05.041Z,10.93
2019-01-11T23:54:37.067Z,11.75
2019-01-11T23:57:09.451Z,9.88
2019-01-11T23:59:41.199Z,11.80
